Time;durP1;ratioP1;P1;durP2;ratioP2;P2;SDS_P1;SDS_P2;PMS_P1;PMS_P2;Temp;Humidity;BMP_temperature;BMP_pressure;BME280_temperature;BME280_humidity;BME280_pressure;Samples;Min_cycle;Max_cycle;Signal;HPM_P1;HPM_P2
2021/09/02 00:00:14;;;;;;;7.43;5.43;;;435.40;2355.20;;;;;;5034963;28;20430;-80
2021/09/02 00:02:40;;;;;;;8.95;5.80;;;435.50;2355.20;;;;;;5031761;28;20083;-80
2021/09/02 00:05:06;;;;;;;6.63;5.22;;;435.50;2355.20;;;;;;5035130;28;20492;-81
2021/09/02 00:07:32;;;;;;;6.97;4.97;;;435.50;2355.20;;;;;;5035397;28;20407;-81
2021/09/02 00:09:58;;;;;;;7.35;5.13;;;435.50;2355.20;;;;;;5035780;28;20511;-79
2021/09/02 00:12:24;;;;;;;8.65;6.05;;;435.50;2355.20;;;;;;5033302;28;20550;-80
2021/09/02 00:14:50;;;;;;;7.90;4.88;;;435.50;2355.20;;;;;;5045869;28;20087;-80
2021/09/02 00:17:16;;;;;;;7.85;4.90;;;435.50;2355.20;;;;;;5034519;28;20022;-81
2021/09/02 00:19:42;;;;;;;6.88;5.22;;;435.60;2355.20;;;;;;5050936;28;20100;-81
2021/09/02 00:22:07;;;;;;;8.18;5.78;;;435.60;2355.20;;;;;;5043574;28;20021;-80
2021/09/02 00:24:33;;;;;;;8.20;5.18;;;435.70;2355.20;;;;;;5035685;28;20037;-81
2021/09/02 00:26:59;;;;;;;11.68;6.47;;;435.60;2355.20;;;;;;5033876;28;20028;-81
2021/09/02 00:29:25;;;;;;;10.70;6.07;;;435.50;2355.20;;;;;;5035656;28;20022;-81
2021/09/02 00:31:51;;;;;;;6.85;4.75;;;435.50;2355.20;;;;;;5034938;28;20483;-80
2021/09/02 00:34:16;;;;;;;8.90;5.00;;;435.70;2355.20;;;;;;5033857;28;20099;-80
2021/09/02 00:36:42;;;;;;;11.20;5.32;;;435.60;2355.20;;;;;;5034684;28;20041;-80
2021/09/02 00:39:08;;;;;;;8.65;6.30;;;435.70;2355.20;;;;;;5049264;28;20021;-80
2021/09/02 00:41:34;;;;;;;8.18;5.85;;;435.60;2355.20;;;;;;5033961;28;20068;-80
2021/09/02 00:44:00;;;;;;;8.98;5.57;;;435.50;2355.20;;;;;;5038980;28;20100;-80
2021/09/02 00:46:25;;;;;;;10.55;6.03;;;435.50;2355.20;;;;;;5045138;28;20040;-80
2021/09/02 00:48:52;;;;;;;7.75;5.07;;;435.50;2355.20;;;;;;5050852;28;20510;-80
2021/09/02 00:51:20;;;;;;;7.18;5.78;;;435.50;2355.20;;;;;;5053041;28;20029;-80
2021/09/02 00:53:50;;;;;;;6.97;5.22;;;435.50;2355.20;;;;;;5033364;28;20040;-79
2021/09/02 00:56:16;;;;;;;6.90;5.32;;;435.50;2355.20;;;;;;5053693;28;20060;-80
2021/09/02 00:58:47;;;;;;;7.75;5.80;;;435.50;2355.20;;;;;;5049031;28;20025;-80
2021/09/02 01:01:16;;;;;;;7.68;5.63;;;435.60;2355.20;;;;;;5040984;28;20025;-79
2021/09/02 01:03:42;;;;;;;8.07;5.53;;;435.50;2355.20;;;;;;5054056;28;20032;-80
2021/09/02 01:06:08;;;;;;;6.97;5.43;;;435.50;2355.20;;;;;;5050675;28;20060;-80
2021/09/02 01:08:35;;;;;;;8.68;5.90;;;435.50;2355.20;;;;;;5033801;28;20060;-80
2021/09/02 01:11:01;;;;;;;8.10;5.45;;;435.50;2355.20;;;;;;5050590;28;20021;-80
2021/09/02 01:13:28;;;;;;;8.15;5.65;;;435.70;2355.20;;;;;;5045472;28;20124;-80
2021/09/02 01:15:54;;;;;;;8.88;5.80;;;435.60;2355.20;;;;;;5047018;28;20379;-79
2021/09/02 01:18:20;;;;;;;8.55;5.13;;;435.60;2355.20;;;;;;5034844;28;20021;-80
2021/09/02 01:20:46;;;;;;;9.30;5.95;;;435.50;2355.20;;;;;;5046829;28;20016;-79
2021/09/02 01:23:17;;;;;;;9.85;5.47;;;435.50;2355.20;;;;;;5048958;28;20268;-80
2021/09/02 01:25:43;;;;;;;6.55;5.15;;;435.50;2355.20;;;;;;5044199;28;20032;-80
2021/09/02 01:28:11;;;;;;;6.88;5.03;;;435.50;2355.20;;;;;;5051527;28;20571;-80
2021/09/02 01:30:38;;;;;;;9.75;6.50;;;435.50;2355.20;;;;;;5043963;28;20036;-80
2021/09/02 01:33:12;;;;;;;8.68;5.63;;;435.50;2355.20;;;;;;5053904;28;20102;-80
2021/09/02 01:35:37;;;;;;;8.40;5.55;;;435.40;2355.20;;;;;;5034326;28;20037;-80
2021/09/02 01:38:06;;;;;;;9.45;6.13;;;435.40;2355.20;;;;;;5045142;28;20021;-80
2021/09/02 01:40:39;;;;;;;9.45;6.43;;;435.40;2355.20;;;;;;5037187;28;20036;-80
2021/09/02 01:43:07;;;;;;;8.75;6.28;;;435.30;2355.20;;;;;;5040747;28;20033;-80
2021/09/02 01:45:35;;;;;;;9.57;6.25;;;435.20;2355.20;;;;;;5033888;28;20029;-79
2021/09/02 01:48:02;;;;;;;9.63;6.60;;;435.20;2355.20;;;;;;5041767;28;20021;-80
2021/09/02 01:50:29;;;;;;;7.78;5.90;;;435.20;2355.20;;;;;;5037602;28;20026;-81
2021/09/02 01:52:57;;;;;;;11.32;7.05;;;410.50;2355.20;;;;;;5032955;28;20025;-81
2021/09/02 01:55:25;;;;;;;10.82;7.47;;;410.50;2355.20;;;;;;5032627;28;20025;-81
2021/09/02 01:57:52;;;;;;;10.43;6.93;;;410.40;2355.20;;;;;;5048090;28;20021;-81
2021/09/02 02:00:20;;;;;;;10.80;7.50;;;410.40;2355.20;;;;;;5032445;28;20018;-81
2021/09/02 02:02:46;;;;;;;10.57;7.47;;;410.30;2355.20;;;;;;5052141;28;20063;-80
2021/09/02 02:05:13;;;;;;;10.93;7.75;;;410.30;2355.20;;;;;;5052345;28;20059;-81
2021/09/02 02:07:39;;;;;;;9.15;7.65;;;410.20;2355.20;;;;;;5038258;28;20032;-81
2021/09/02 02:10:09;;;;;;;10.10;7.72;;;410.10;2355.20;;;;;;5044307;28;20389;-81
2021/09/02 02:12:35;;;;;;;8.55;6.45;;;410.20;2355.20;;;;;;5033485;28;20028;-81
2021/09/02 02:15:00;;;;;;;9.20;6.40;;;410.10;2355.20;;;;;;5040883;28;20025;-81
2021/09/02 02:17:26;;;;;;;7.95;6.05;;;410.10;2355.20;;;;;;5051557;28;20028;-81
2021/09/02 02:19:52;;;;;;;11.32;6.47;;;410.10;2355.20;;;;;;5053553;28;20525;-82
2021/09/02 02:22:18;;;;;;;15.15;7.55;;;410.00;2355.20;;;;;;5045119;28;20140;-81
2021/09/02 02:24:44;;;;;;;8.68;6.13;;;410.00;2355.20;;;;;;5046334;28;20384;-81
2021/09/02 02:27:10;;;;;;;9.40;5.82;;;409.90;2355.20;;;;;;5047173;28;20025;-81
2021/09/02 02:29:35;;;;;;;9.95;5.75;;;409.90;2355.20;;;;;;5043275;28;20025;-81
2021/09/02 02:32:01;;;;;;;8.65;5.90;;;409.80;2355.20;;;;;;5047319;28;20021;-80
2021/09/02 02:34:27;;;;;;;9.50;6.65;;;409.80;2355.20;;;;;;5040984;28;20434;-79
2021/09/02 02:36:53;;;;;;;9.20;6.97;;;409.80;2355.20;;;;;;5039075;28;20029;-79
2021/09/02 02:39:18;;;;;;;9.40;7.00;;;409.70;2355.20;;;;;;5044336;28;20035;-79
2021/09/02 02:41:44;;;;;;;12.30;7.15;;;409.80;2355.20;;;;;;5031509;28;20037;-79
2021/09/02 02:44:10;;;;;;;9.23;6.55;;;409.80;2355.20;;;;;;5032745;28;20026;-79
2021/09/02 02:46:36;;;;;;;12.68;7.57;;;409.60;2355.20;;;;;;5031890;28;20033;-79
2021/09/02 02:49:02;;;;;;;11.52;7.45;;;409.60;2355.20;;;;;;5042221;28;20022;-79
2021/09/02 02:51:27;;;;;;;11.55;7.20;;;409.60;2355.20;;;;;;5033073;28;20064;-79
2021/09/02 02:53:53;;;;;;;10.77;8.10;;;409.60;2355.20;;;;;;5031220;28;20445;-79
2021/09/02 02:56:19;;;;;;;8.05;6.57;;;409.60;2355.20;;;;;;5032969;28;20660;-80
2021/09/02 02:58:45;;;;;;;13.27;7.50;;;409.60;2355.20;;;;;;5032649;28;20029;-79
2021/09/02 03:01:11;;;;;;;10.40;7.95;;;409.60;2355.20;;;;;;5042253;28;20029;-80
2021/09/02 03:03:37;;;;;;;10.45;8.68;;;409.60;2355.20;;;;;;5041233;28;20505;-80
2021/09/02 03:06:03;;;;;;;14.20;9.13;;;409.60;2355.20;;;;;;5032585;28;20033;-80
2021/09/02 03:08:29;;;;;;;15.63;9.40;;;409.60;2355.20;;;;;;5031369;28;20044;-80
2021/09/02 03:10:54;;;;;;;14.05;8.73;;;409.60;2355.20;;;;;;5032204;28;20057;-80
2021/09/02 03:13:20;;;;;;;12.68;8.35;;;409.60;2355.20;;;;;;5031344;28;20029;-80
2021/09/02 03:15:46;;;;;;;12.95;7.93;;;384.90;2329.60;;;;;;5032231;28;20074;-80
2021/09/02 03:18:12;;;;;;;11.85;8.25;;;384.90;2329.60;;;;;;5042237;28;20094;-80
2021/09/02 03:20:37;;;;;;;11.82;7.45;;;384.90;2329.60;;;;;;5032042;28;20431;-80
2021/09/02 03:23:03;;;;;;;10.45;7.18;;;384.90;2329.60;;;;;;5042190;28;20380;-80
2021/09/02 03:25:29;;;;;;;9.73;6.60;;;384.90;2329.60;;;;;;5032126;28;20029;-80
2021/09/02 03:27:54;;;;;;;9.43;7.45;;;384.80;2329.60;;;;;;5031997;28;20029;-80
2021/09/02 03:30:20;;;;;;;10.02;6.97;;;384.90;2329.60;;;;;;5037311;28;20033;-79
2021/09/02 03:32:46;;;;;;;10.15;6.90;;;384.90;2329.60;;;;;;5029361;28;20114;-80
2021/09/02 03:35:12;;;;;;;9.57;6.22;;;384.90;2329.60;;;;;;5045748;28;20538;-79
2021/09/02 03:37:37;;;;;;;8.63;6.95;;;384.90;2329.60;;;;;;5030528;28;20742;-79
2021/09/02 03:40:05;;;;;;;11.38;7.55;;;384.80;2329.60;;;;;;5031870;28;20021;-78
2021/09/02 03:42:30;;;;;;;12.57;8.23;;;384.80;2329.60;;;;;;5030346;28;20095;-80
2021/09/02 03:44:56;;;;;;;14.05;7.90;;;384.80;2329.60;;;;;;5043084;28;20059;-80
2021/09/02 03:47:22;;;;;;;12.55;8.32;;;384.80;2329.60;;;;;;5034069;28;20025;-80
2021/09/02 03:49:48;;;;;;;10.63;7.93;;;384.80;2329.60;;;;;;5041544;28;20032;-80
2021/09/02 03:52:14;;;;;;;9.60;7.57;;;384.70;2329.60;;;;;;5036219;28;20108;-81
2021/09/02 03:54:39;;;;;;;12.45;9.73;;;384.80;2329.60;;;;;;5031636;28;20100;-78
2021/09/02 03:57:05;;;;;;;9.75;7.35;;;384.70;2329.60;;;;;;5045646;28;20051;-79
2021/09/02 03:59:31;;;;;;;11.15;7.68;;;384.80;2329.60;;;;;;5051675;28;20430;-81
2021/09/02 04:01:57;;;;;;;13.68;9.68;;;384.70;2329.60;;;;;;5034552;28;20034;-80
2021/09/02 04:04:22;;;;;;;14.77;9.43;;;384.60;2329.60;;;;;;5030372;28;20400;-77
2021/09/02 04:06:48;;;;;;;12.57;8.32;;;384.50;2329.60;;;;;;5030738;28;20068;-78
2021/09/02 04:09:14;;;;;;;12.70;7.88;;;384.60;2329.60;;;;;;5030287;28;20025;-80
2021/09/02 04:11:40;;;;;;;13.02;7.25;;;384.60;2329.60;;;;;;5039504;28;20499;-80
2021/09/02 04:14:05;;;;;;;14.23;8.45;;;384.60;2329.60;;;;;;5024126;28;20029;-80
2021/09/02 04:16:31;;;;;;;11.57;8.88;;;384.60;2329.60;;;;;;5030079;28;20109;-78
2021/09/02 04:18:57;;;;;;;13.85;8.77;;;384.60;2329.60;;;;;;5031353;28;20029;-78
2021/09/02 04:21:22;;;;;;;12.55;9.35;;;384.70;2329.60;;;;;;5030562;28;20057;-79
2021/09/02 04:23:49;;;;;;;12.30;8.65;;;384.60;2329.60;;;;;;5031781;28;20171;-78
2021/09/02 04:26:16;;;;;;;13.27;8.48;;;384.50;2329.60;;;;;;5034409;28;20455;-79
2021/09/02 04:28:41;;;;;;;13.32;8.73;;;384.50;2329.60;;;;;;5026614;28;20484;-79
2021/09/02 04:31:07;;;;;;;11.65;9.05;;;384.50;2329.60;;;;;;5026171;28;20034;-79
2021/09/02 04:33:33;;;;;;;14.80;8.90;;;384.60;2329.60;;;;;;5044872;28;20056;-79
2021/09/02 04:35:59;;;;;;;11.57;8.73;;;384.40;2329.60;;;;;;5030712;28;20038;-78
2021/09/02 04:38:24;;;;;;;17.55;9.10;;;384.50;2329.60;;;;;;5044826;28;20025;-78
2021/09/02 04:40:50;;;;;;;12.25;9.27;;;384.40;2329.60;;;;;;5051848;28;20349;-79
2021/09/02 04:43:16;;;;;;;12.35;8.25;;;384.50;2329.60;;;;;;5043358;28;20022;-78
2021/09/02 04:45:42;;;;;;;12.20;9.27;;;384.40;2329.60;;;;;;5037376;28;20021;-78
2021/09/02 04:48:19;;;;;;;15.00;8.85;;;384.50;2329.60;;;;;;5045626;28;20528;-79
2021/09/02 04:50:47;;;;;;;12.57;9.13;;;384.50;2329.60;;;;;;5035177;28;20025;-79
2021/09/02 04:53:14;;;;;;;16.08;10.05;;;384.60;2329.60;;;;;;5034761;28;20116;-79
2021/09/02 04:55:40;;;;;;;14.05;8.52;;;384.60;2329.60;;;;;;5038270;28;20757;-79
2021/09/02 04:58:09;;;;;;;13.80;8.52;;;384.70;2329.60;;;;;;5033951;28;20109;-80
2021/09/02 05:00:36;;;;;;;12.73;8.18;;;384.70;2329.60;;;;;;5034473;28;20841;-80
2021/09/02 05:03:03;;;;;;;12.15;8.38;;;384.70;2329.60;;;;;;5034097;28;20029;-80
2021/09/02 05:05:28;;;;;;;12.55;8.75;;;384.90;2329.60;;;;;;5034396;28;20785;-80
2021/09/02 05:07:54;;;;;;;16.35;9.00;;;384.90;2329.60;;;;;;5032537;28;20163;-80
2021/09/02 05:10:21;;;;;;;14.55;8.93;;;384.90;2329.60;;;;;;5038215;28;20025;-80
2021/09/02 05:12:47;;;;;;;15.30;8.48;;;384.90;2329.60;;;;;;5038883;28;20053;-80
2021/09/02 05:15:13;;;;;;;13.32;8.05;;;409.60;2355.20;;;;;;5030561;28;20558;-79
2021/09/02 05:17:38;;;;;;;14.52;8.50;;;409.60;2355.20;;;;;;5027846;28;20024;-80
2021/09/02 05:20:05;;;;;;;12.45;8.80;;;409.80;2355.20;;;;;;5027539;28;20022;-81
2021/09/02 05:22:31;;;;;;;15.55;8.95;;;409.90;2355.20;;;;;;5023803;28;20022;-80
2021/09/02 05:24:57;;;;;;;15.40;8.27;;;410.10;2355.20;;;;;;5029662;28;20083;-80
2021/09/02 05:27:23;;;;;;;12.98;8.85;;;410.20;2355.20;;;;;;5030563;28;20044;-80
2021/09/02 05:29:48;;;;;;;12.02;8.73;;;410.10;2355.20;;;;;;5031263;28;20144;-80
2021/09/02 05:32:14;;;;;;;13.85;8.75;;;410.20;2355.20;;;;;;5032843;28;20033;-80
2021/09/02 05:34:40;;;;;;;11.77;7.97;;;410.40;2355.20;;;;;;5029824;28;20038;-80
2021/09/02 05:37:06;;;;;;;11.27;8.35;;;410.50;2355.20;;;;;;5032914;28;20392;-79
2021/09/02 05:39:32;;;;;;;12.10;9.07;;;410.50;2355.20;;;;;;5033168;28;20032;-80
2021/09/02 05:41:57;;;;;;;13.15;9.07;;;435.20;2355.20;;;;;;5032483;28;20026;-79
2021/09/02 05:44:23;;;;;;;13.32;9.02;;;435.40;2355.20;;;;;;5033266;28;20030;-80
2021/09/02 05:46:49;;;;;;;10.52;7.70;;;435.40;2355.20;;;;;;5046913;28;20440;-80
2021/09/02 05:49:15;;;;;;;12.23;8.50;;;435.50;2355.20;;;;;;5033310;28;20412;-80
2021/09/02 05:51:40;;;;;;;10.50;8.15;;;435.50;2355.20;;;;;;5028098;28;20508;-79
2021/09/02 05:54:06;;;;;;;11.68;9.10;;;435.70;2355.20;;;;;;5026066;28;20097;-80
2021/09/02 05:56:32;;;;;;;15.70;10.07;;;435.80;2355.20;;;;;;5032243;28;20030;-80
2021/09/02 05:58:58;;;;;;;11.65;9.57;;;435.90;2355.20;;;;;;5025475;28;20026;-80
2021/09/02 06:01:23;;;;;;;13.50;9.80;;;436.10;2355.20;;;;;;5027699;28;20033;-80
2021/09/02 06:03:49;;;;;;;15.68;10.65;;;460.80;2380.80;;;;;;5026858;28;20100;-79
2021/09/02 06:06:15;;;;;;;13.98;8.60;;;460.80;2380.80;;;;;;5029689;28;20040;-79
2021/09/02 06:08:41;;;;;;;11.10;8.30;;;461.00;2380.80;;;;;;5023703;28;20384;-79
2021/09/02 06:11:06;;;;;;;12.63;8.27;;;461.10;2380.80;;;;;;5026539;28;20488;-79
2021/09/02 06:13:33;;;;;;;12.82;8.27;;;461.30;2380.80;;;;;;5024408;28;20029;-78
2021/09/02 06:16:01;;;;;;;11.82;7.50;;;461.50;2380.80;;;;;;5025512;28;20075;-78
2021/09/02 06:18:30;;;;;;;16.83;7.97;;;461.70;2380.80;;;;;;5032879;28;20028;-79
2021/09/02 06:20:56;;;;;;;11.50;8.27;;;486.50;2380.80;;;;;;5027384;28;20021;-79
2021/09/02 06:23:22;;;;;;;9.93;7.70;;;486.60;2380.80;;;;;;5024733;28;20096;-78
2021/09/02 06:25:48;;;;;;;11.77;7.35;;;486.90;2380.80;;;;;;5023806;28;20405;-79
2021/09/02 06:28:14;;;;;;;9.60;7.68;;;487.00;2380.80;;;;;;5022204;28;20021;-82
2021/09/02 06:30:40;;;;;;;12.45;8.25;;;487.30;2380.80;;;;;;5022354;28;20508;-80
2021/09/02 06:33:06;;;;;;;16.83;9.80;;;512.10;2380.80;;;;;;5019919;28;20046;-80
2021/09/02 06:35:32;;;;;;;15.75;8.20;;;512.20;2380.80;;;;;;5025362;28;20048;-80
2021/09/02 06:37:58;;;;;;;11.02;8.13;;;512.30;2380.80;;;;;;5024982;28;20048;-81
2021/09/02 06:40:24;;;;;;;18.20;9.25;;;512.40;2380.80;;;;;;5030688;28;20029;-81
2021/09/02 06:42:50;;;;;;;12.70;8.77;;;512.60;2380.80;;;;;;5025461;28;20017;-79
2021/09/02 06:45:17;;;;;;;10.75;8.65;;;537.60;2406.40;;;;;;5018145;28;20052;-78
2021/09/02 06:47:44;;;;;;;10.95;6.97;;;537.90;2406.40;;;;;;5027719;28;20029;-78
2021/09/02 06:50:12;;;;;;;11.48;7.97;;;538.20;2406.40;;;;;;5025216;28;20025;-78
2021/09/02 06:52:39;;;;;;;11.68;7.35;;;538.30;2406.40;;;;;;5028175;28;20026;-79
2021/09/02 06:55:07;;;;;;;10.02;7.03;;;563.30;2432.00;;;;;;5024119;28;20044;-79
2021/09/02 06:57:33;;;;;;;8.25;7.30;;;563.20;2432.00;;;;;;5021442;28;20473;-79
2021/09/02 06:59:58;;;;;;;10.20;7.88;;;563.50;2432.00;;;;;;5025699;28;20025;-79
2021/09/02 07:02:24;;;;;;;11.75;7.68;;;563.70;2432.00;;;;;;5023617;28;20037;-78
2021/09/02 07:04:50;;;;;;;11.40;7.35;;;564.00;2432.00;;;;;;5021326;28;20431;-77
2021/09/02 07:07:16;;;;;;;11.95;6.50;;;563.80;2432.00;;;;;;5027021;28;20057;-76
2021/09/02 07:09:41;;;;;;;10.68;6.78;;;563.70;2432.00;;;;;;5021393;28;20033;-75
2021/09/02 07:12:07;;;;;;;9.32;7.40;;;563.90;2432.00;;;;;;5030469;28;20040;-76
2021/09/02 07:14:33;;;;;;;9.23;6.53;;;564.00;2432.00;;;;;;5023440;28;20503;-76
2021/09/02 07:17:24;;;;;;;9.75;6.70;;;588.90;2432.00;;;;;;5028796;28;20021;-76
2021/09/02 07:19:50;;;;;;;10.23;6.72;;;588.80;2432.00;;;;;;5030223;28;20021;-76
2021/09/02 07:22:15;;;;;;;12.52;7.32;;;588.90;2432.00;;;;;;5032104;28;20107;-76
2021/09/02 07:24:41;;;;;;;9.93;6.80;;;589.00;2432.00;;;;;;5022140;28;20428;-77
2021/09/02 07:27:07;;;;;;;9.52;6.93;;;589.10;2432.00;;;;;;5025628;28;20052;-76
2021/09/02 07:29:33;;;;;;;8.90;6.07;;;589.30;2432.00;;;;;;5030418;28;20052;-76
2021/09/02 07:31:59;;;;;;;13.43;7.10;;;589.40;2432.00;;;;;;5031515;28;20029;-76
2021/09/02 07:34:24;;;;;;;13.40;7.60;;;589.60;2432.00;;;;;;5041093;28;20499;-76
2021/09/02 07:36:50;;;;;;;12.02;6.65;;;614.40;2432.00;;;;;;5037536;28;20538;-76
2021/09/02 07:39:16;;;;;;;9.60;7.00;;;614.70;2432.00;;;;;;5038314;28;20029;-76
2021/09/02 07:41:42;;;;;;;9.02;6.38;;;614.90;2432.00;;;;;;5030405;28;20028;-76
2021/09/02 07:44:08;;;;;;;8.45;5.80;;;614.90;2432.00;;;;;;5046353;28;20151;-76
2021/09/02 07:46:35;;;;;;;8.35;6.72;;;615.00;2432.00;;;;;;5042677;28;20484;-76
2021/09/02 07:49:01;;;;;;;11.38;6.53;;;615.20;2432.00;;;;;;5047600;28;20033;-76
2021/09/02 07:51:26;;;;;;;7.00;5.75;;;640.20;2432.00;;;;;;5039575;28;20369;-77
2021/09/02 07:53:52;;;;;;;7.00;5.00;;;640.00;2432.00;;;;;;5050723;28;20083;-77
2021/09/02 07:56:18;;;;;;;7.07;5.38;;;640.30;2432.00;;;;;;5049598;28;20063;-77
2021/09/02 07:58:44;;;;;;;7.93;5.03;;;640.00;2432.00;;;;;;5050847;28;20021;-77
2021/09/02 08:01:13;;;;;;;7.43;4.90;;;640.20;2432.00;;;;;;5045732;28;20037;-77
2021/09/02 08:03:40;;;;;;;7.47;4.97;;;640.20;2432.00;;;;;;5030468;28;20069;-77
2021/09/02 08:06:06;;;;;;;12.32;5.72;;;640.30;2432.00;;;;;;5034275;28;20120;-77
2021/09/02 08:08:33;;;;;;;7.30;5.00;;;640.20;2432.00;;;;;;5043875;28;20025;-77
2021/09/02 08:10:58;;;;;;;7.07;4.88;;;640.50;2432.00;;;;;;5031610;28;20025;-77
2021/09/02 08:13:24;;;;;;;8.45;6.20;;;640.80;2432.00;;;;;;5046968;28;20108;-77
2021/09/02 08:15:50;;;;;;;5.97;5.05;;;666.00;2432.00;;;;;;5044459;28;20032;-77
2021/09/02 08:18:16;;;;;;;9.20;5.22;;;665.60;2406.40;;;;;;5052321;28;20025;-77
2021/09/02 08:20:42;;;;;;;5.70;4.80;;;665.60;2432.00;;;;;;5041122;28;20025;-78
2021/09/02 08:23:08;;;;;;;9.00;5.70;;;640.70;2432.00;;;;;;5046630;28;20029;-78
2021/09/02 08:25:34;;;;;;;9.52;5.32;;;640.60;2432.00;;;;;;5044013;28;20055;-77
2021/09/02 08:28:00;;;;;;;10.35;5.70;;;640.30;2432.00;;;;;;5050866;28;20032;-77
2021/09/02 08:30:28;;;;;;;7.70;4.63;;;640.10;2432.00;;;;;;5034674;28;20029;-77
2021/09/02 08:32:54;;;;;;;7.80;5.10;;;640.40;2406.40;;;;;;5034118;28;20052;-77
2021/09/02 08:35:23;;;;;;;12.13;4.78;;;640.90;2355.20;;;;;;5051746;28;20091;-77
2021/09/02 08:37:50;;;;;;;11.73;4.68;;;666.20;2304.00;;;;;;5043625;28;20032;-77
2021/09/02 08:40:19;;;;;;;6.25;5.20;;;666.20;2278.40;;;;;;5052092;28;20029;-78
2021/09/02 08:42:46;;;;;;;6.68;4.75;;;666.20;2252.80;;;;;;5041487;28;20025;-78
2021/09/02 08:45:13;;;;;;;9.77;5.18;;;665.80;2278.40;;;;;;5040337;28;20041;-78
2021/09/02 08:47:42;;;;;;;22.33;6.55;;;665.90;2252.80;;;;;;5047736;28;20031;-77
2021/09/02 08:50:08;;;;;;;7.60;5.45;;;665.60;2252.80;;;;;;5044698;28;20039;-78
2021/09/02 08:52:34;;;;;;;7.20;4.28;;;640.50;2252.80;;;;;;5053163;28;20483;-78
2021/09/02 08:55:02;;;;;;;7.10;5.22;;;640.10;2278.40;;;;;;5053700;28;20055;-77
2021/09/02 08:57:28;;;;;;;7.38;5.32;;;640.00;2329.60;;;;;;5054399;28;20533;-78
2021/09/02 08:59:54;;;;;;;7.88;5.47;;;615.20;2329.60;;;;;;5053708;28;20021;-77
2021/09/02 09:02:24;;;;;;;7.28;5.10;;;640.00;2329.60;;;;;;5054575;28;20025;-77
2021/09/02 09:05:00;;;;;;;7.05;4.97;;;640.00;2329.60;;;;;;5053754;28;20025;-77
2021/09/02 09:07:33;;;;;;;7.18;4.93;;;665.60;2278.40;;;;;;5053617;28;20025;-77
2021/09/02 09:10:00;;;;;;;8.02;5.00;;;640.90;2227.20;;;;;;5054394;28;20379;-78
2021/09/02 09:12:41;;;;;;;7.15;4.85;;;666.10;2201.60;;;;;;5054832;28;20032;-78
2021/09/02 09:15:09;;;;;;;8.75;5.13;;;666.30;2124.80;;;;;;5033082;28;20033;-77
2021/09/02 09:17:36;;;;;;;8.18;5.72;;;666.20;2176.00;;;;;;5040225;28;20032;-77
2021/09/02 09:20:06;;;;;;;6.28;4.53;;;666.00;2150.40;;;;;;5047225;28;20546;-78
2021/09/02 09:22:33;;;;;;;8.98;4.75;;;665.60;2150.40;;;;;;5047278;28;20029;-77
2021/09/02 09:25:04;;;;;;;6.68;4.72;;;640.80;2150.40;;;;;;5049469;28;20040;-78
2021/09/02 09:27:41;;;;;;;10.20;5.05;;;640.70;2150.40;;;;;;5033057;28;20025;-78
2021/09/02 09:30:16;;;;;;;10.25;5.38;;;640.30;2201.60;;;;;;5046979;28;20021;-77
2021/09/02 09:32:58;;;;;;;6.57;4.57;;;640.50;2201.60;;;;;;5036652;28;20501;-78
2021/09/02 09:35:29;;;;;;;9.13;4.45;;;640.70;2099.20;;;;;;5046810;28;20587;-77
2021/09/02 09:38:15;;;;;;;6.07;3.97;;;691.20;2048.00;;;;;;5042668;28;20035;-78
2021/09/02 09:40:43;;;;;;;7.13;5.18;;;666.50;2048.00;;;;;;5053063;28;20020;-78
2021/09/02 09:43:14;;;;;;;8.05;4.47;;;665.70;2124.80;;;;;;5054061;28;20037;-78
2021/09/02 09:45:49;;;;;;;7.85;4.95;;;640.60;2150.40;;;;;;5049586;28;20113;-78
2021/09/02 09:48:29;;;;;;;9.90;5.03;;;640.10;2201.60;;;;;;5032953;28;20025;-78
2021/09/02 09:51:05;;;;;;;12.20;5.22;;;640.00;2227.20;;;;;;5038303;28;20475;-78
2021/09/02 09:53:31;;;;;;;9.15;4.60;;;640.00;2176.00;;;;;;5054032;28;20862;-78
2021/09/02 09:55:57;;;;;;;8.00;5.78;;;640.60;2150.40;;;;;;5035516;28;20038;-78
2021/09/02 09:58:25;;;;;;;6.80;4.65;;;666.20;2099.20;;;;;;5042056;28;20495;-78
2021/09/02 10:00:54;;;;;;;6.82;4.40;;;666.10;2124.80;;;;;;5053791;28;20021;-78
2021/09/02 10:03:20;;;;;;;9.38;4.45;;;691.40;2073.60;;;;;;5042958;28;20022;-78
2021/09/02 10:05:50;;;;;;;11.30;4.93;;;692.00;1996.80;;;;;;5048584;28;20037;-78
2021/09/02 10:08:16;;;;;;;6.28;4.50;;;717.20;1920.00;;;;;;5044678;28;20033;-78
2021/09/02 10:10:42;;;;;;;6.28;3.97;;;743.00;1792.00;;;;;;5047371;28;20021;-77
2021/09/02 10:13:08;;;;;;;6.30;4.30;;;768.30;1740.80;;;;;;5051086;28;20021;-79
2021/09/02 10:15:34;;;;;;;6.97;4.68;;;768.40;1689.60;;;;;;5025895;28;20062;-78
2021/09/02 10:18:04;;;;;;;5.65;4.20;;;743.20;1715.20;;;;;;5034530;28;20033;-79
2021/09/02 10:20:35;;;;;;;5.40;4.20;;;742.60;1715.20;;;;;;5022575;28;20469;-80
2021/09/02 10:23:03;;;;;;;6.68;4.53;;;717.10;1792.00;;;;;;5032392;28;20033;-80
2021/09/02 10:25:34;;;;;;;9.77;4.93;;;716.80;1843.20;;;;;;5033548;28;20029;-81
2021/09/02 10:28:01;;;;;;;6.35;4.55;;;717.30;1766.40;;;;;;5034544;28;20025;-80
2021/09/02 10:30:28;;;;;;;9.73;5.63;;;742.90;1766.40;;;;;;5021956;28;20022;-80
2021/09/02 10:32:56;;;;;;;7.13;4.78;;;768.00;1740.80;;;;;;5032285;28;20060;-80
2021/09/02 10:35:25;;;;;;;7.93;4.47;;;768.60;1638.40;;;;;;5046549;28;20044;-79
2021/09/02 10:37:53;;;;;;;6.60;4.72;;;794.20;1587.20;;;;;;5041707;28;20021;-80
2021/09/02 10:40:19;;;;;;;7.18;4.40;;;794.50;1587.20;;;;;;5051790;28;20483;-80
2021/09/02 10:42:56;;;;;;;6.53;4.88;;;794.40;1536.00;;;;;;5044000;28;20038;-80
2021/09/02 10:45:25;;;;;;;6.35;4.60;;;794.40;1536.00;;;;;;5024553;28;20030;-79
2021/09/02 10:48:03;;;;;;;10.07;5.15;;;793.90;1561.60;;;;;;5030972;28;20030;-80
2021/09/02 10:50:40;;;;;;;7.30;4.50;;;794.10;1536.00;;;;;;5030082;28;20103;-80
2021/09/02 10:53:11;;;;;;;5.28;4.35;;;819.20;1484.80;;;;;;5030691;28;20025;-79
2021/09/02 10:55:54;;;;;;;4.88;3.92;;;794.40;1484.80;;;;;;5033714;28;20029;-79
2021/09/02 10:58:45;;;;;;;7.55;5.00;;;844.80;1433.60;;;;;;5034636;28;20060;-79
2021/09/02 11:01:23;;;;;;;7.10;4.90;;;845.30;1433.60;;;;;;5027184;28;20030;-79
2021/09/02 11:03:51;;;;;;;6.18;4.32;;;793.60;1510.40;;;;;;5032174;28;20112;-76
2021/09/02 11:06:16;;;;;;;7.80;4.50;;;768.40;1536.00;;;;;;5044447;28;20481;-76
2021/09/02 11:08:43;;;;;;;5.28;3.70;;;742.90;1561.60;;;;;;5032662;28;20029;-76
2021/09/02 11:11:13;;;;;;;7.20;4.68;;;742.70;1587.20;;;;;;5047291;28;20029;-76
2021/09/02 11:13:40;;;;;;;6.28;4.57;;;742.50;1612.80;;;;;;5041815;28;20029;-76
2021/09/02 11:16:11;;;;;;;9.52;5.15;;;717.60;1612.80;;;;;;5034161;28;20049;-76
2021/09/02 11:18:44;;;;;;;6.47;4.63;;;717.10;1612.80;;;;;;5042860;28;20018;-76
2021/09/02 11:21:15;;;;;;;6.78;4.28;;;717.00;1638.40;;;;;;5032361;28;20037;-76
2021/09/02 11:23:45;;;;;;;6.95;5.25;;;717.00;1638.40;;;;;;5032223;28;20048;-77
2021/09/02 11:26:29;;;;;;;9.05;4.63;;;716.90;1689.60;;;;;;5032512;28;20108;-77
2021/09/02 11:28:56;;;;;;;6.57;4.80;;;716.80;1664.00;;;;;;5032118;28;20025;-77
2021/09/02 11:31:21;;;;;;;6.07;3.78;;;743.00;1561.60;;;;;;5031921;28;20542;-76
2021/09/02 11:33:49;;;;;;;5.57;4.40;;;743.30;1561.60;;;;;;5046124;28;20068;-77
2021/09/02 11:36:15;;;;;;;5.00;4.25;;;743.00;1561.60;;;;;;5030547;28;20132;-77
2021/09/02 11:38:42;;;;;;;7.53;4.63;;;742.50;1587.20;;;;;;5045127;28;20021;-77
2021/09/02 11:41:23;;;;;;;6.80;4.57;;;742.50;1612.80;;;;;;5040085;28;20070;-77
2021/09/02 11:43:54;;;;;;;6.63;4.68;;;717.60;1587.20;;;;;;5050416;28;20017;-76
2021/09/02 11:46:21;;;;;;;7.35;4.05;;;717.40;1587.20;;;;;;5025834;28;20026;-76
2021/09/02 11:48:57;;;;;;;5.30;3.50;;;717.40;1587.20;;;;;;5031152;28;20029;-76
2021/09/02 11:51:25;;;;;;;6.75;3.95;;;717.10;1561.60;;;;;;5029992;28;20116;-77
2021/09/02 11:54:08;;;;;;;5.85;3.78;;;717.10;1536.00;;;;;;5024914;28;20496;-77
2021/09/02 11:56:35;;;;;;;5.70;4.00;;;743.10;1536.00;;;;;;5033665;28;20128;-76
2021/09/02 11:59:03;;;;;;;7.60;4.75;;;768.50;1484.80;;;;;;5030652;28;20468;-76
2021/09/02 12:01:29;;;;;;;7.68;4.45;;;768.00;1536.00;;;;;;5024409;28;20022;-76
2021/09/02 12:03:55;;;;;;;5.60;3.90;;;742.40;1587.20;;;;;;5023997;28;20503;-76
2021/09/02 12:06:26;;;;;;;5.70;3.95;;;742.50;1561.60;;;;;;5023865;28;20040;-77
2021/09/02 12:08:53;;;;;;;6.63;4.38;;;768.40;1536.00;;;;;;5022603;28;20109;-76
2021/09/02 12:11:20;;;;;;;7.25;4.82;;;768.60;1510.40;;;;;;5029555;28;20040;-79
2021/09/02 12:13:46;;;;;;;18.55;4.22;;;743.30;1510.40;;;;;;5026099;28;20068;-76